sensor_id;sensor_type;location;lat;lon;timestamp;P1;durP1;ratioP1;P2;durP2;ratioP2
76196;SDS011;64974;53.144;17.962;2023-03-25T00:00:02;18.10;;;12.60;;
76196;SDS011;64974;53.144;17.962;2023-03-25T00:02:31;15.65;;;10.90;;
76196;SDS011;64974;53.144;17.962;2023-03-25T00:04:58;18.17;;;11.07;;
76196;SDS011;64974;53.144;17.962;2023-03-25T00:07:27;23.20;;;11.85;;
76196;SDS011;64974;53.144;17.962;2023-03-25T00:09:52;30.23;;;12.80;;
76196;SDS011;64974;53.144;17.962;2023-03-25T00:12:18;22.77;;;8.10;;
76196;SDS011;64974;53.144;17.962;2023-03-25T00:14:43;10.85;;;5.50;;
76196;SDS011;64974;53.144;17.962;2023-03-25T00:17:18;23.23;;;9.00;;
76196;SDS011;64974;53.144;17.962;2023-03-25T00:19:44;20.92;;;8.73;;
76196;SDS011;64974;53.144;17.962;2023-03-25T00:22:09;32.08;;;11.20;;
76196;SDS011;64974;53.144;17.962;2023-03-25T00:24:35;18.37;;;8.87;;
76196;SDS011;64974;53.144;17.962;2023-03-25T00:27:00;26.97;;;15.10;;
76196;SDS011;64974;53.144;17.962;2023-03-25T00:29:25;29.73;;;11.73;;
76196;SDS011;64974;53.144;17.962;2023-03-25T00:31:50;32.17;;;11.00;;
76196;SDS011;64974;53.144;17.962;2023-03-25T00:34:16;21.37;;;8.93;;
76196;SDS011;64974;53.144;17.962;2023-03-25T00:36:41;23.87;;;10.43;;
76196;SDS011;64974;53.144;17.962;2023-03-25T00:39:07;11.32;;;7.38;;
76196;SDS011;64974;53.144;17.962;2023-03-25T00:41:33;22.70;;;9.60;;
76196;SDS011;64974;53.144;17.962;2023-03-25T00:44:01;27.33;;;10.20;;
76196;SDS011;64974;53.144;17.962;2023-03-25T00:46:28;27.83;;;11.30;;
76196;SDS011;64974;53.144;17.962;2023-03-25T00:48:55;14.93;;;7.90;;
76196;SDS011;64974;53.144;17.962;2023-03-25T00:51:21;25.10;;;10.30;;
76196;SDS011;64974;53.144;17.962;2023-03-25T00:53:49;16.30;;;8.85;;
76196;SDS011;64974;53.144;17.962;2023-03-25T00:56:19;13.48;;;8.80;;
76196;SDS011;64974;53.144;17.962;2023-03-25T00:58:45;11.60;;;6.65;;
76196;SDS011;64974;53.144;17.962;2023-03-25T01:01:11;10.13;;;5.55;;
76196;SDS011;64974;53.144;17.962;2023-03-25T01:03:39;13.45;;;8.75;;
76196;SDS011;64974;53.144;17.962;2023-03-25T01:06:08;16.45;;;9.25;;
76196;SDS011;64974;53.144;17.962;2023-03-25T01:08:37;25.00;;;10.52;;
76196;SDS011;64974;53.144;17.962;2023-03-25T01:11:03;23.92;;;11.75;;
76196;SDS011;64974;53.144;17.962;2023-03-25T01:15:55;9.52;;;5.22;;
76196;SDS011;64974;53.144;17.962;2023-03-25T01:18:20;10.05;;;5.20;;
76196;SDS011;64974;53.144;17.962;2023-03-25T01:20:45;12.83;;;5.57;;
76196;SDS011;64974;53.144;17.962;2023-03-25T01:23:11;11.63;;;6.20;;
76196;SDS011;64974;53.144;17.962;2023-03-25T01:25:36;11.38;;;5.60;;
76196;SDS011;64974;53.144;17.962;2023-03-25T01:28:02;13.13;;;5.78;;
76196;SDS011;64974;53.144;17.962;2023-03-25T01:30:27;15.60;;;7.43;;
76196;SDS011;64974;53.144;17.962;2023-03-25T01:32:53;25.33;;;10.10;;
76196;SDS011;64974;53.144;17.962;2023-03-25T01:35:18;61.42;;;19.90;;
76196;SDS011;64974;53.144;17.962;2023-03-25T01:37:43;51.38;;;18.90;;
76196;SDS011;64974;53.144;17.962;2023-03-25T01:40:11;22.55;;;11.13;;
76196;SDS011;64974;53.144;17.962;2023-03-25T01:42:42;14.20;;;6.90;;
76196;SDS011;64974;53.144;17.962;2023-03-25T01:45:15;21.05;;;10.32;;
76196;SDS011;64974;53.144;17.962;2023-03-25T01:47:44;47.53;;;19.77;;
76196;SDS011;64974;53.144;17.962;2023-03-25T01:50:11;37.85;;;16.17;;
76196;SDS011;64974;53.144;17.962;2023-03-25T01:52:39;28.90;;;14.55;;
76196;SDS011;64974;53.144;17.962;2023-03-25T01:55:06;14.88;;;7.75;;
76196;SDS011;64974;53.144;17.962;2023-03-25T01:57:32;15.73;;;7.70;;
76196;SDS011;64974;53.144;17.962;2023-03-25T01:59:57;24.77;;;11.43;;
76196;SDS011;64974;53.144;17.962;2023-03-25T02:02:23;13.15;;;7.07;;
76196;SDS011;64974;53.144;17.962;2023-03-25T02:05:08;14.35;;;6.60;;
76196;SDS011;64974;53.144;17.962;2023-03-25T02:07:36;11.88;;;6.65;;
76196;SDS011;64974;53.144;17.962;2023-03-25T02:10:07;14.10;;;7.55;;
76196;SDS011;64974;53.144;17.962;2023-03-25T02:12:33;14.98;;;6.50;;
76196;SDS011;64974;53.144;17.962;2023-03-25T02:14:59;11.00;;;6.38;;
76196;SDS011;64974;53.144;17.962;2023-03-25T02:28:50;12.35;;;6.22;;
76196;SDS011;64974;53.144;17.962;2023-03-25T02:36:53;10.65;;;6.43;;
76196;SDS011;64974;53.144;17.962;2023-03-25T02:44:55;11.73;;;6.60;;
76196;SDS011;64974;53.144;17.962;2023-03-25T02:47:24;11.73;;;6.20;;
76196;SDS011;64974;53.144;17.962;2023-03-25T02:49:57;11.80;;;6.10;;
76196;SDS011;64974;53.144;17.962;2023-03-25T02:52:32;16.48;;;6.80;;
76196;SDS011;64974;53.144;17.962;2023-03-25T02:55:02;12.98;;;7.03;;
76196;SDS011;64974;53.144;17.962;2023-03-25T02:57:30;13.40;;;6.30;;
76196;SDS011;64974;53.144;17.962;2023-03-25T02:59:57;12.93;;;7.30;;
76196;SDS011;64974;53.144;17.962;2023-03-25T03:02:24;13.23;;;6.53;;
76196;SDS011;64974;53.144;17.962;2023-03-25T03:04:52;13.77;;;6.20;;
76196;SDS011;64974;53.144;17.962;2023-03-25T03:07:24;16.25;;;6.82;;
76196;SDS011;64974;53.144;17.962;2023-03-25T03:28:02;14.27;;;8.00;;
76196;SDS011;64974;53.144;17.962;2023-03-25T03:35:52;12.60;;;6.50;;
76196;SDS011;64974;53.144;17.962;2023-03-25T03:38:21;14.50;;;7.88;;
76196;SDS011;64974;53.144;17.962;2023-03-25T03:40:50;13.43;;;7.18;;
76196;SDS011;64974;53.144;17.962;2023-03-25T03:43:20;14.75;;;7.07;;
76196;SDS011;64974;53.144;17.962;2023-03-25T03:45:51;13.70;;;6.40;;
76196;SDS011;64974;53.144;17.962;2023-03-25T03:48:20;10.85;;;6.78;;
76196;SDS011;64974;53.144;17.962;2023-03-25T03:50:49;13.18;;;6.75;;
76196;SDS011;64974;53.144;17.962;2023-03-25T03:53:26;14.57;;;6.03;;
76196;SDS011;64974;53.144;17.962;2023-03-25T03:58:48;11.95;;;7.22;;
76196;SDS011;64974;53.144;17.962;2023-03-25T04:01:31;12.13;;;6.65;;
76196;SDS011;64974;53.144;17.962;2023-03-25T04:04:03;13.18;;;6.97;;
76196;SDS011;64974;53.144;17.962;2023-03-25T04:06:42;14.75;;;7.15;;
76196;SDS011;64974;53.144;17.962;2023-03-25T04:09:19;10.35;;;6.20;;
76196;SDS011;64974;53.144;17.962;2023-03-25T04:11:53;11.07;;;6.80;;
76196;SDS011;64974;53.144;17.962;2023-03-25T04:14:20;12.68;;;7.15;;
76196;SDS011;64974;53.144;17.962;2023-03-25T04:16:46;13.40;;;7.78;;
76196;SDS011;64974;53.144;17.962;2023-03-25T04:19:11;12.50;;;6.60;;
76196;SDS011;64974;53.144;17.962;2023-03-25T04:21:37;12.55;;;7.15;;
76196;SDS011;64974;53.144;17.962;2023-03-25T04:24:03;13.32;;;7.40;;
76196;SDS011;64974;53.144;17.962;2023-03-25T04:26:32;11.93;;;6.97;;
76196;SDS011;64974;53.144;17.962;2023-03-25T04:29:01;13.43;;;7.45;;
76196;SDS011;64974;53.144;17.962;2023-03-25T04:31:27;13.45;;;6.53;;
76196;SDS011;64974;53.144;17.962;2023-03-25T04:33:54;12.38;;;6.30;;
76196;SDS011;64974;53.144;17.962;2023-03-25T04:36:21;15.90;;;7.05;;
76196;SDS011;64974;53.144;17.962;2023-03-25T04:38:47;14.50;;;7.00;;
76196;SDS011;64974;53.144;17.962;2023-03-25T04:41:12;13.67;;;6.80;;
76196;SDS011;64974;53.144;17.962;2023-03-25T04:43:38;11.63;;;6.60;;
76196;SDS011;64974;53.144;17.962;2023-03-25T04:46:04;18.55;;;6.70;;
76196;SDS011;64974;53.144;17.962;2023-03-25T04:48:30;13.18;;;7.65;;
76196;SDS011;64974;53.144;17.962;2023-03-25T04:50:58;11.27;;;6.43;;
76196;SDS011;64974;53.144;17.962;2023-03-25T04:53:24;13.35;;;6.82;;
76196;SDS011;64974;53.144;17.962;2023-03-25T04:55:51;13.18;;;6.68;;
76196;SDS011;64974;53.144;17.962;2023-03-25T04:58:16;12.80;;;6.20;;
76196;SDS011;64974;53.144;17.962;2023-03-25T05:00:45;15.25;;;7.18;;
76196;SDS011;64974;53.144;17.962;2023-03-25T05:03:14;17.33;;;7.38;;
76196;SDS011;64974;53.144;17.962;2023-03-25T05:05:40;11.32;;;6.50;;
76196;SDS011;64974;53.144;17.962;2023-03-25T05:08:05;15.00;;;7.60;;
76196;SDS011;64974;53.144;17.962;2023-03-25T05:10:31;14.77;;;6.72;;
76196;SDS011;64974;53.144;17.962;2023-03-25T05:13:02;15.40;;;6.75;;
76196;SDS011;64974;53.144;17.962;2023-03-25T05:15:32;13.50;;;6.88;;
76196;SDS011;64974;53.144;17.962;2023-03-25T05:18:03;13.15;;;6.88;;
76196;SDS011;64974;53.144;17.962;2023-03-25T05:20:36;11.13;;;6.03;;
76196;SDS011;64974;53.144;17.962;2023-03-25T05:23:04;11.20;;;6.10;;
76196;SDS011;64974;53.144;17.962;2023-03-25T05:25:43;15.75;;;6.80;;
76196;SDS011;64974;53.144;17.962;2023-03-25T05:28:12;13.95;;;6.82;;
76196;SDS011;64974;53.144;17.962;2023-03-25T05:30:38;13.95;;;6.60;;
76196;SDS011;64974;53.144;17.962;2023-03-25T05:33:06;13.82;;;6.20;;
76196;SDS011;64974;53.144;17.962;2023-03-25T05:35:35;13.23;;;5.88;;
76196;SDS011;64974;53.144;17.962;2023-03-25T05:38:04;15.00;;;7.05;;
76196;SDS011;64974;53.144;17.962;2023-03-25T05:42:55;13.40;;;6.38;;
76196;SDS011;64974;53.144;17.962;2023-03-25T05:45:21;13.93;;;6.80;;
76196;SDS011;64974;53.144;17.962;2023-03-25T05:47:47;16.48;;;7.97;;
76196;SDS011;64974;53.144;17.962;2023-03-25T05:50:12;16.10;;;7.88;;
76196;SDS011;64974;53.144;17.962;2023-03-25T05:52:38;18.70;;;7.72;;
76196;SDS011;64974;53.144;17.962;2023-03-25T05:55:17;12.75;;;6.60;;
76196;SDS011;64974;53.144;17.962;2023-03-25T05:57:43;11.32;;;5.97;;
76196;SDS011;64974;53.144;17.962;2023-03-25T06:00:09;13.77;;;7.00;;
76196;SDS011;64974;53.144;17.962;2023-03-25T06:02:36;12.98;;;6.40;;
76196;SDS011;64974;53.144;17.962;2023-03-25T06:05:03;14.98;;;7.90;;
76196;SDS011;64974;53.144;17.962;2023-03-25T06:07:29;16.23;;;8.50;;
76196;SDS011;64974;53.144;17.962;2023-03-25T06:09:55;16.80;;;7.50;;
76196;SDS011;64974;53.144;17.962;2023-03-25T06:12:21;17.13;;;8.60;;
76196;SDS011;64974;53.144;17.962;2023-03-25T06:14:47;17.35;;;8.20;;
76196;SDS011;64974;53.144;17.962;2023-03-25T06:17:18;13.13;;;7.57;;
76196;SDS011;64974;53.144;17.962;2023-03-25T06:19:44;16.25;;;7.68;;
76196;SDS011;64974;53.144;17.962;2023-03-25T06:22:10;11.93;;;6.82;;
76196;SDS011;64974;53.144;17.962;2023-03-25T06:24:36;17.67;;;8.43;;
76196;SDS011;64974;53.144;17.962;2023-03-25T06:27:05;14.02;;;6.82;;
76196;SDS011;64974;53.144;17.962;2023-03-25T06:29:38;12.93;;;6.65;;
76196;SDS011;64974;53.144;17.962;2023-03-25T06:32:07;11.38;;;6.40;;
76196;SDS011;64974;53.144;17.962;2023-03-25T06:34:33;13.23;;;5.90;;
76196;SDS011;64974;53.144;17.962;2023-03-25T06:36:58;12.30;;;7.30;;
76196;SDS011;64974;53.144;17.962;2023-03-25T06:39:25;13.27;;;7.22;;
76196;SDS011;64974;53.144;17.962;2023-03-25T06:41:50;12.88;;;6.80;;
76196;SDS011;64974;53.144;17.962;2023-03-25T06:44:16;12.10;;;5.70;;
76196;SDS011;64974;53.144;17.962;2023-03-25T06:46:42;11.45;;;6.30;;
76196;SDS011;64974;53.144;17.962;2023-03-25T06:51:33;11.52;;;5.68;;
76196;SDS011;64974;53.144;17.962;2023-03-25T06:53:58;11.88;;;5.63;;
76196;SDS011;64974;53.144;17.962;2023-03-25T06:56:24;11.60;;;5.40;;
76196;SDS011;64974;53.144;17.962;2023-03-25T06:58:49;9.57;;;5.18;;
76196;SDS011;64974;53.144;17.962;2023-03-25T07:01:15;10.77;;;5.50;;
76196;SDS011;64974;53.144;17.962;2023-03-25T07:03:40;11.38;;;4.88;;
76196;SDS011;64974;53.144;17.962;2023-03-25T07:06:06;10.05;;;4.93;;
76196;SDS011;64974;53.144;17.962;2023-03-25T07:08:32;9.32;;;4.00;;
76196;SDS011;64974;53.144;17.962;2023-03-25T07:11:01;7.55;;;4.30;;
76196;SDS011;64974;53.144;17.962;2023-03-25T07:13:27;11.18;;;4.78;;
76196;SDS011;64974;53.144;17.962;2023-03-25T07:15:55;7.25;;;4.32;;
76196;SDS011;64974;53.144;17.962;2023-03-25T07:18:20;9.57;;;4.72;;
76196;SDS011;64974;53.144;17.962;2023-03-25T07:20:45;8.82;;;4.38;;
76196;SDS011;64974;53.144;17.962;2023-03-25T07:23:11;8.85;;;4.20;;
76196;SDS011;64974;53.144;17.962;2023-03-25T07:25:36;12.57;;;4.50;;
76196;SDS011;64974;53.144;17.962;2023-03-25T07:28:02;8.30;;;4.18;;
76196;SDS011;64974;53.144;17.962;2023-03-25T07:30:27;9.50;;;3.83;;
76196;SDS011;64974;53.144;17.962;2023-03-25T07:32:52;9.40;;;4.40;;
76196;SDS011;64974;53.144;17.962;2023-03-25T07:35:18;7.95;;;3.97;;
76196;SDS011;64974;53.144;17.962;2023-03-25T07:37:43;9.63;;;4.05;;
76196;SDS011;64974;53.144;17.962;2023-03-25T07:40:08;8.53;;;3.87;;
76196;SDS011;64974;53.144;17.962;2023-03-25T07:42:35;7.40;;;3.40;;
76196;SDS011;64974;53.144;17.962;2023-03-25T07:45:01;9.15;;;4.40;;
76196;SDS011;64974;53.144;17.962;2023-03-25T07:47:27;7.30;;;4.00;;
76196;SDS011;64974;53.144;17.962;2023-03-25T07:49:52;7.77;;;3.73;;
76196;SDS011;64974;53.144;17.962;2023-03-25T07:52:17;9.23;;;3.57;;
76196;SDS011;64974;53.144;17.962;2023-03-25T07:54:43;7.40;;;3.70;;
76196;SDS011;64974;53.144;17.962;2023-03-25T07:57:08;8.80;;;3.65;;
76196;SDS011;64974;53.144;17.962;2023-03-25T07:59:33;9.25;;;3.15;;
76196;SDS011;64974;53.144;17.962;2023-03-25T08:01:59;7.20;;;3.40;;
76196;SDS011;64974;53.144;17.962;2023-03-25T08:04:24;8.53;;;3.70;;
76196;SDS011;64974;53.144;17.962;2023-03-25T08:06:49;7.28;;;3.40;;
76196;SDS011;64974;53.144;17.962;2023-03-25T08:09:15;8.83;;;4.00;;
76196;SDS011;64974;53.144;17.962;2023-03-25T08:11:40;7.20;;;3.53;;
76196;SDS011;64974;53.144;17.962;2023-03-25T08:14:05;7.07;;;3.97;;
76196;SDS011;64974;53.144;17.962;2023-03-25T08:16:31;6.80;;;3.58;;
76196;SDS011;64974;53.144;17.962;2023-03-25T08:18:56;7.15;;;3.92;;
76196;SDS011;64974;53.144;17.962;2023-03-25T08:21:22;8.98;;;4.20;;
76196;SDS011;64974;53.144;17.962;2023-03-25T08:23:51;7.18;;;3.63;;
76196;SDS011;64974;53.144;17.962;2023-03-25T08:26:22;8.00;;;3.30;;
76196;SDS011;64974;53.144;17.962;2023-03-25T08:28:48;9.68;;;4.07;;
76196;SDS011;64974;53.144;17.962;2023-03-25T08:31:13;6.13;;;3.00;;
76196;SDS011;64974;53.144;17.962;2023-03-25T08:33:39;8.40;;;3.33;;
76196;SDS011;64974;53.144;17.962;2023-03-25T08:36:05;8.15;;;4.18;;
76196;SDS011;64974;53.144;17.962;2023-03-25T08:38:33;8.38;;;4.05;;
76196;SDS011;64974;53.144;17.962;2023-03-25T08:40:59;6.38;;;2.90;;
76196;SDS011;64974;53.144;17.962;2023-03-25T08:43:25;6.05;;;2.85;;
76196;SDS011;64974;53.144;17.962;2023-03-25T08:45:50;6.43;;;3.70;;
76196;SDS011;64974;53.144;17.962;2023-03-25T08:48:16;8.57;;;3.83;;
76196;SDS011;64974;53.144;17.962;2023-03-25T08:50:41;5.90;;;3.15;;
76196;SDS011;64974;53.144;17.962;2023-03-25T08:53:07;7.95;;;3.95;;
76196;SDS011;64974;53.144;17.962;2023-03-25T08:55:32;7.32;;;3.90;;
76196;SDS011;64974;53.144;17.962;2023-03-25T08:58:01;6.82;;;3.63;;
76196;SDS011;64974;53.144;17.962;2023-03-25T09:00:31;9.50;;;4.03;;
76196;SDS011;64974;53.144;17.962;2023-03-25T09:02:57;7.88;;;3.78;;
76196;SDS011;64974;53.144;17.962;2023-03-25T09:07:48;7.10;;;4.07;;
76196;SDS011;64974;53.144;17.962;2023-03-25T09:10:14;9.13;;;4.10;;
76196;SDS011;64974;53.144;17.962;2023-03-25T09:12:40;7.68;;;4.03;;
76196;SDS011;64974;53.144;17.962;2023-03-25T09:15:05;7.18;;;4.28;;
76196;SDS011;64974;53.144;17.962;2023-03-25T09:17:31;5.60;;;4.07;;
76196;SDS011;64974;53.144;17.962;2023-03-25T09:19:57;10.02;;;5.18;;
76196;SDS011;64974;53.144;17.962;2023-03-25T09:22:22;10.50;;;4.60;;
76196;SDS011;64974;53.144;17.962;2023-03-25T09:24:47;8.40;;;5.00;;
76196;SDS011;64974;53.144;17.962;2023-03-25T09:27:13;9.90;;;4.45;;
76196;SDS011;64974;53.144;17.962;2023-03-25T09:29:38;6.27;;;4.17;;
76196;SDS011;64974;53.144;17.962;2023-03-25T09:32:04;6.68;;;4.00;;
76196;SDS011;64974;53.144;17.962;2023-03-25T09:34:29;9.60;;;4.03;;
76196;SDS011;64974;53.144;17.962;2023-03-25T09:36:55;9.40;;;4.72;;
76196;SDS011;64974;53.144;17.962;2023-03-25T09:39:20;6.95;;;4.28;;
76196;SDS011;64974;53.144;17.962;2023-03-25T09:41:53;12.55;;;5.30;;
76196;SDS011;64974;53.144;17.962;2023-03-25T09:44:26;6.95;;;4.50;;
76196;SDS011;64974;53.144;17.962;2023-03-25T09:46:53;6.55;;;4.68;;
76196;SDS011;64974;53.144;17.962;2023-03-25T09:49:25;6.53;;;3.53;;
76196;SDS011;64974;53.144;17.962;2023-03-25T09:51:56;6.05;;;3.40;;
76196;SDS011;64974;53.144;17.962;2023-03-25T09:54:29;7.38;;;4.70;;
76196;SDS011;64974;53.144;17.962;2023-03-25T09:56:56;9.93;;;4.75;;
76196;SDS011;64974;53.144;17.962;2023-03-25T09:59:31;8.48;;;6.20;;
76196;SDS011;64974;53.144;17.962;2023-03-25T10:05:23;10.85;;;4.40;;
76196;SDS011;64974;53.144;17.962;2023-03-25T10:08:00;7.95;;;4.05;;
76196;SDS011;64974;53.144;17.962;2023-03-25T10:10:31;10.70;;;4.95;;
76196;SDS011;64974;53.144;17.962;2023-03-25T10:18:51;10.55;;;4.00;;
76196;SDS011;64974;53.144;17.962;2023-03-25T10:21:45;15.90;;;4.80;;
76196;SDS011;64974;53.144;17.962;2023-03-25T10:24:27;7.65;;;3.30;;
76196;SDS011;64974;53.144;17.962;2023-03-25T10:29:38;6.75;;;3.00;;
76196;SDS011;64974;53.144;17.962;2023-03-25T10:32:39;5.80;;;2.83;;
76196;SDS011;64974;53.144;17.962;2023-03-25T10:35:08;4.75;;;2.58;;
76196;SDS011;64974;53.144;17.962;2023-03-25T10:37:36;9.00;;;3.20;;
76196;SDS011;64974;53.144;17.962;2023-03-25T10:40:22;4.70;;;2.38;;
76196;SDS011;64974;53.144;17.962;2023-03-25T10:45:48;4.88;;;2.83;;
76196;SDS011;64974;53.144;17.962;2023-03-25T10:48:26;5.50;;;2.90;;
76196;SDS011;64974;53.144;17.962;2023-03-25T10:51:00;4.20;;;2.22;;
76196;SDS011;64974;53.144;17.962;2023-03-25T10:53:28;9.57;;;3.13;;
76196;SDS011;64974;53.144;17.962;2023-03-25T10:55:59;8.25;;;2.72;;
76196;SDS011;64974;53.144;17.962;2023-03-25T10:58:29;5.90;;;2.40;;
76196;SDS011;64974;53.144;17.962;2023-03-25T11:00:55;4.45;;;2.20;;
76196;SDS011;64974;53.144;17.962;2023-03-25T11:03:30;4.15;;;2.22;;
76196;SDS011;64974;53.144;17.962;2023-03-25T11:05:58;4.28;;;1.95;;
76196;SDS011;64974;53.144;17.962;2023-03-25T11:08:23;3.95;;;2.25;;
76196;SDS011;64974;53.144;17.962;2023-03-25T11:10:50;5.25;;;2.42;;
76196;SDS011;64974;53.144;17.962;2023-03-25T11:13:23;3.83;;;2.00;;
76196;SDS011;64974;53.144;17.962;2023-03-25T11:15:51;5.70;;;2.55;;
76196;SDS011;64974;53.144;17.962;2023-03-25T11:20:52;4.90;;;2.30;;
76196;SDS011;64974;53.144;17.962;2023-03-25T11:25:48;5.20;;;2.72;;
76196;SDS011;64974;53.144;17.962;2023-03-25T11:28:18;5.55;;;2.70;;
76196;SDS011;64974;53.144;17.962;2023-03-25T11:36:20;6.10;;;2.97;;
76196;SDS011;64974;53.144;17.962;2023-03-25T11:38:53;5.65;;;2.20;;
76196;SDS011;64974;53.144;17.962;2023-03-25T11:41:21;4.88;;;2.00;;
76196;SDS011;64974;53.144;17.962;2023-03-25T11:43:47;5.88;;;2.22;;
76196;SDS011;64974;53.144;17.962;2023-03-25T11:46:14;4.68;;;1.77;;
76196;SDS011;64974;53.144;17.962;2023-03-25T11:48:41;4.07;;;2.03;;
76196;SDS011;64974;53.144;17.962;2023-03-25T11:51:18;3.63;;;1.58;;
76196;SDS011;64974;53.144;17.962;2023-03-25T11:53:46;3.97;;;1.83;;
76196;SDS011;64974;53.144;17.962;2023-03-25T11:56:19;6.50;;;2.00;;
76196;SDS011;64974;53.144;17.962;2023-03-25T11:58:47;4.35;;;2.30;;
76196;SDS011;64974;53.144;17.962;2023-03-25T12:01:21;5.07;;;2.25;;
76196;SDS011;64974;53.144;17.962;2023-03-25T12:03:49;3.92;;;1.88;;
76196;SDS011;64974;53.144;17.962;2023-03-25T12:06:16;3.95;;;1.92;;
76196;SDS011;64974;53.144;17.962;2023-03-25T12:08:57;4.20;;;1.63;;
76196;SDS011;64974;53.144;17.962;2023-03-25T12:11:27;5.20;;;2.08;;
76196;SDS011;64974;53.144;17.962;2023-03-25T12:14:01;4.57;;;2.03;;
76196;SDS011;64974;53.144;17.962;2023-03-25T12:16:53;5.18;;;2.90;;
76196;SDS011;64974;53.144;17.962;2023-03-25T12:19:32;4.70;;;2.15;;
76196;SDS011;64974;53.144;17.962;2023-03-25T12:38:36;4.28;;;2.15;;
76196;SDS011;64974;53.144;17.962;2023-03-25T12:41:15;8.00;;;2.92;;
76196;SDS011;64974;53.144;17.962;2023-03-25T12:43:51;5.47;;;2.30;;
76196;SDS011;64974;53.144;17.962;2023-03-25T12:46:33;4.45;;;2.10;;
76196;SDS011;64974;53.144;17.962;2023-03-25T12:51:36;4.63;;;2.00;;
76196;SDS011;64974;53.144;17.962;2023-03-25T12:56:59;3.85;;;2.10;;
76196;SDS011;64974;53.144;17.962;2023-03-25T13:02:27;6.30;;;2.00;;
76196;SDS011;64974;53.144;17.962;2023-03-25T13:05:18;4.47;;;2.25;;
76196;SDS011;64974;53.144;17.962;2023-03-25T13:07:55;5.30;;;2.63;;
76196;SDS011;64974;53.144;17.962;2023-03-25T13:10:27;4.78;;;3.20;;
76196;SDS011;64974;53.144;17.962;2023-03-25T13:12:59;5.00;;;3.00;;
76196;SDS011;64974;53.144;17.962;2023-03-25T13:15:26;7.15;;;3.88;;
76196;SDS011;64974;53.144;17.962;2023-03-25T13:17:59;4.20;;;2.40;;
76196;SDS011;64974;53.144;17.962;2023-03-25T13:20:33;5.20;;;3.10;;
76196;SDS011;64974;53.144;17.962;2023-03-25T13:23:03;8.70;;;4.47;;
76196;SDS011;64974;53.144;17.962;2023-03-25T13:28:01;8.77;;;4.05;;
76196;SDS011;64974;53.144;17.962;2023-03-25T13:33:00;4.93;;;2.67;;
76196;SDS011;64974;53.144;17.962;2023-03-25T13:35:41;5.30;;;2.58;;
76196;SDS011;64974;53.144;17.962;2023-03-25T13:38:12;4.65;;;2.50;;
76196;SDS011;64974;53.144;17.962;2023-03-25T13:41:10;6.20;;;2.72;;
76196;SDS011;64974;53.144;17.962;2023-03-25T13:46:20;7.97;;;3.00;;
76196;SDS011;64974;53.144;17.962;2023-03-25T13:49:05;6.53;;;3.20;;
76196;SDS011;64974;53.144;17.962;2023-03-25T13:51:36;4.75;;;2.63;;
76196;SDS011;64974;53.144;17.962;2023-03-25T13:56:56;5.22;;;2.10;;
76196;SDS011;64974;53.144;17.962;2023-03-25T14:04:51;4.85;;;2.10;;
76196;SDS011;64974;53.144;17.962;2023-03-25T14:13:10;4.38;;;1.80;;
76196;SDS011;64974;53.144;17.962;2023-03-25T14:15:50;4.78;;;1.80;;
76196;SDS011;64974;53.144;17.962;2023-03-25T14:18:28;5.18;;;2.17;;
76196;SDS011;64974;53.144;17.962;2023-03-25T14:20:56;5.35;;;2.03;;
76196;SDS011;64974;53.144;17.962;2023-03-25T14:23:23;7.20;;;3.40;;
76196;SDS011;64974;53.144;17.962;2023-03-25T14:25:57;7.45;;;2.75;;
76196;SDS011;64974;53.144;17.962;2023-03-25T14:31:44;7.43;;;3.25;;
76196;SDS011;64974;53.144;17.962;2023-03-25T14:57:06;8.45;;;3.65;;
76196;SDS011;64974;53.144;17.962;2023-03-25T14:59:42;7.47;;;4.38;;
76196;SDS011;64974;53.144;17.962;2023-03-25T15:02:14;10.43;;;4.93;;
76196;SDS011;64974;53.144;17.962;2023-03-25T15:04:41;10.00;;;5.45;;
76196;SDS011;64974;53.144;17.962;2023-03-25T15:07:09;10.13;;;4.72;;
76196;SDS011;64974;53.144;17.962;2023-03-25T15:09:46;8.90;;;4.20;;
76196;SDS011;64974;53.144;17.962;2023-03-25T15:12:15;10.43;;;3.95;;
76196;SDS011;64974;53.144;17.962;2023-03-25T15:14:43;6.47;;;3.05;;
76196;SDS011;64974;53.144;17.962;2023-03-25T15:17:09;7.65;;;2.72;;
76196;SDS011;64974;53.144;17.962;2023-03-25T15:22:26;4.80;;;2.20;;
76196;SDS011;64974;53.144;17.962;2023-03-25T15:24:56;6.55;;;2.15;;
76196;SDS011;64974;53.144;17.962;2023-03-25T15:27:29;4.43;;;1.85;;
76196;SDS011;64974;53.144;17.962;2023-03-25T15:30:46;5.18;;;2.08;;
76196;SDS011;64974;53.144;17.962;2023-03-25T15:33:30;6.47;;;2.28;;
76196;SDS011;64974;53.144;17.962;2023-03-25T15:36:21;6.25;;;2.50;;
76196;SDS011;64974;53.144;17.962;2023-03-25T15:47:19;3.15;;;1.20;;
76196;SDS011;64974;53.144;17.962;2023-03-25T15:50:10;5.18;;;1.70;;
76196;SDS011;64974;53.144;17.962;2023-03-25T15:52:52;4.10;;;1.77;;
76196;SDS011;64974;53.144;17.962;2023-03-25T15:55:28;3.47;;;1.65;;
76196;SDS011;64974;53.144;17.962;2023-03-25T15:57:59;5.97;;;2.60;;
76196;SDS011;64974;53.144;17.962;2023-03-25T16:00:34;4.68;;;2.03;;
76196;SDS011;64974;53.144;17.962;2023-03-25T16:03:07;6.88;;;2.92;;
76196;SDS011;64974;53.144;17.962;2023-03-25T16:05:38;9.95;;;3.55;;
76196;SDS011;64974;53.144;17.962;2023-03-25T16:13:44;5.85;;;2.53;;
76196;SDS011;64974;53.144;17.962;2023-03-25T16:16:11;5.60;;;2.53;;
76196;SDS011;64974;53.144;17.962;2023-03-25T16:18:40;5.22;;;1.48;;
76196;SDS011;64974;53.144;17.962;2023-03-25T16:21:07;3.38;;;1.67;;
76196;SDS011;64974;53.144;17.962;2023-03-25T16:25:59;4.53;;;1.65;;
76196;SDS011;64974;53.144;17.962;2023-03-25T16:28:26;4.23;;;1.53;;
76196;SDS011;64974;53.144;17.962;2023-03-25T16:30:55;4.68;;;2.33;;
76196;SDS011;64974;53.144;17.962;2023-03-25T16:33:25;4.45;;;2.00;;
76196;SDS011;64974;53.144;17.962;2023-03-25T16:35:55;4.13;;;2.05;;
76196;SDS011;64974;53.144;17.962;2023-03-25T16:38:23;5.25;;;2.30;;
76196;SDS011;64974;53.144;17.962;2023-03-25T16:40:49;5.43;;;2.35;;
76196;SDS011;64974;53.144;17.962;2023-03-25T16:43:17;6.90;;;2.78;;
76196;SDS011;64974;53.144;17.962;2023-03-25T16:45:44;4.80;;;2.78;;
76196;SDS011;64974;53.144;17.962;2023-03-25T16:48:14;6.45;;;2.92;;
76196;SDS011;64974;53.144;17.962;2023-03-25T16:50:46;7.18;;;3.17;;
76196;SDS011;64974;53.144;17.962;2023-03-25T16:53:12;6.57;;;2.97;;
76196;SDS011;64974;53.144;17.962;2023-03-25T16:55:44;9.00;;;4.15;;
76196;SDS011;64974;53.144;17.962;2023-03-25T16:58:17;7.03;;;3.75;;
76196;SDS011;64974;53.144;17.962;2023-03-25T17:00:47;7.13;;;3.67;;
76196;SDS011;64974;53.144;17.962;2023-03-25T17:03:14;7.03;;;3.30;;
76196;SDS011;64974;53.144;17.962;2023-03-25T17:05:49;6.63;;;3.33;;
76196;SDS011;64974;53.144;17.962;2023-03-25T17:08:15;5.47;;;3.10;;
76196;SDS011;64974;53.144;17.962;2023-03-25T17:13:13;8.32;;;4.22;;
76196;SDS011;64974;53.144;17.962;2023-03-25T17:15:59;8.43;;;4.15;;
76196;SDS011;64974;53.144;17.962;2023-03-25T17:18:29;7.72;;;4.55;;
76196;SDS011;64974;53.144;17.962;2023-03-25T17:20:55;9.80;;;5.18;;
76196;SDS011;64974;53.144;17.962;2023-03-25T17:23:33;10.65;;;5.45;;
76196;SDS011;64974;53.144;17.962;2023-03-25T17:26:03;6.28;;;3.30;;
76196;SDS011;64974;53.144;17.962;2023-03-25T17:28:32;9.18;;;4.43;;
76196;SDS011;64974;53.144;17.962;2023-03-25T17:30:57;7.97;;;3.33;;
76196;SDS011;64974;53.144;17.962;2023-03-25T17:33:33;10.88;;;4.07;;
76196;SDS011;64974;53.144;17.962;2023-03-25T17:36:03;5.78;;;2.83;;
76196;SDS011;64974;53.144;17.962;2023-03-25T17:38:43;7.93;;;2.95;;